Time;durP1;ratioP1;P1;durP2;ratioP2;P2;SDS_P1;SDS_P2;PMS_P1;PMS_P2;Temp;Humidity;BMP_temperature;BMP_pressure;BME280_temperature;BME280_humidity;BME280_pressure;Samples;Min_cycle;Max_cycle;Signal;HPM_P1;HPM_P2
2023/11/13 00:00:18;;;;;;;14.60;9.50;;;;;;;9.67;nan;99687.22;5034443;27;100912;-90
2023/11/13 00:02:44;;;;;;;13.95;10.25;;;;;;;9.52;nan;99661.66;5022097;27;101069;-88
2023/11/13 00:05:10;;;;;;;17.38;10.63;;;;;;;9.69;nan;99705.53;5020074;27;96784;-89
2023/11/13 00:07:36;;;;;;;13.60;8.80;;;;;;;9.47;nan;99676.69;5011936;28;97385;-89
2023/11/13 00:10:02;;;;;;;14.75;9.00;;;;;;;9.67;nan;99716.06;5045599;27;101502;-89
2023/11/13 00:12:28;;;;;;;13.75;8.98;;;;;;;9.70;nan;99702.81;4996681;27;99952;-89
2023/11/13 00:14:53;;;;;;;13.57;9.43;;;;;;;9.57;nan;99685.03;5004642;27;96888;-89
2023/11/13 00:17:19;;;;;;;18.40;9.80;;;;;;;9.77;nan;99713.06;5012197;28;96845;-89
2023/11/13 00:19:45;;;;;;;13.13;8.98;;;;;;;9.81;nan;99719.91;5002009;27;101218;-88
2023/11/13 00:22:10;;;;;;;16.08;9.68;;;;;;;9.71;nan;99714.16;5016740;27;101674;-89
2023/11/13 00:24:36;;;;;;;13.27;9.43;;;;;;;9.57;nan;99699.00;5028071;27;96751;-88
2023/11/13 00:27:03;;;;;;;13.73;9.35;;;;;;;9.77;nan;99728.78;5001025;27;97188;-88
2023/11/13 00:29:28;;;;;;;12.80;8.85;;;;;;;9.84;nan;99717.16;5031248;27;99724;-89
2023/11/13 00:31:54;;;;;;;13.98;9.27;;;;;;;9.81;nan;99720.75;5018303;27;101252;-89
2023/11/13 00:34:19;;;;;;;14.13;8.98;;;;;;;9.79;nan;99716.47;5004470;28;96730;-88
2023/11/13 00:36:47;;;;;;;14.43;8.88;;;;;;;9.76;nan;99720.06;5033826;27;96955;-88
2023/11/13 00:39:13;;;;;;;11.20;7.65;;;;;;;9.68;nan;99690.69;5030843;27;98327;-89
2023/11/13 00:41:41;;;;;;;11.55;8.05;;;;;;;9.82;nan;99717.22;5025654;27;101480;-89
2023/11/13 00:44:06;;;;;;;13.40;7.63;;;;;;;9.84;nan;99717.16;5013069;27;96887;-89
2023/11/13 00:46:32;;;;;;;11.32;7.80;;;;;;;9.65;nan;99698.69;5004910;28;96864;-90
2023/11/13 00:48:58;;;;;;;11.55;7.82;;;;;;;9.67;nan;99708.19;4992409;27;99922;-89
2023/11/13 00:51:23;;;;;;;12.50;7.90;;;;;;;9.63;nan;99704.00;5024044;27;100359;-88
2023/11/13 00:53:49;;;;;;;12.43;7.10;;;;;;;9.67;nan;99702.94;5034832;27;96808;-89
2023/11/13 00:56:16;;;;;;;12.88;8.40;;;;;;;9.72;nan;99716.72;5017991;27;96801;-88
2023/11/13 00:58:41;;;;;;;12.18;7.78;;;;;;;9.40;nan;99688.34;5015830;27;100592;-88
2023/11/13 01:01:08;;;;;;;11.88;8.30;;;;;;;9.72;nan;99718.50;5007069;27;101393;-88
2023/11/13 01:03:34;;;;;;;13.68;9.30;;;;;;;9.55;nan;99692.97;5005992;27;96838;-86
2023/11/13 01:06:00;;;;;;;13.05;8.32;;;;;;;9.66;nan;99713.50;5032893;27;97167;-88
2023/11/13 01:08:26;;;;;;;13.45;8.70;;;;;;;9.57;nan;99704.25;5037510;27;101008;-89
2023/11/13 01:10:52;;;;;;;11.85;8.15;;;;;;;9.57;nan;99698.13;5028656;28;101208;-88
2023/11/13 01:13:21;;;;;;;12.40;8.25;;;;;;;9.70;nan;99720.31;5001741;28;96941;-89
2023/11/13 01:15:54;;;;;;;12.35;8.77;;;;;;;9.41;nan;99690.88;5003305;27;97063;-88
2023/11/13 01:18:19;;;;;;;14.38;9.13;;;;;;;9.29;nan;99680.88;5006095;28;101565;-88
2023/11/13 01:20:46;;;;;;;11.20;8.05;;;;;;;9.46;nan;99688.94;5007683;27;101562;-88
2023/11/13 01:23:12;;;;;;;15.27;9.57;;;;;;;9.62;nan;99723.25;5004929;27;96774;-88
2023/11/13 01:25:37;;;;;;;12.10;8.45;;;;;;;9.62;nan;99711.91;5019634;27;97113;-88
2023/11/13 01:28:03;;;;;;;15.68;9.10;;;;;;;9.65;nan;99725.75;5029740;27;100076;-90
2023/11/13 01:30:29;;;;;;;13.80;8.27;;;;;;;9.64;nan;99721.41;5009045;27;100969;-88
2023/11/13 01:32:54;;;;;;;9.60;6.93;;;;;;;9.70;nan;99725.56;5029131;27;97839;-89
2023/11/13 01:35:20;;;;;;;10.02;6.80;;;;;;;9.70;nan;99730.81;5034164;27;97174;-89
2023/11/13 01:37:46;;;;;;;10.30;6.68;;;;;;;9.72;nan;99734.22;5024811;27;101098;-88
2023/11/13 01:40:12;;;;;;;10.18;6.97;;;;;;;9.72;nan;99747.34;5026194;27;101936;-88
2023/11/13 01:42:38;;;;;;;13.77;7.28;;;;;;;9.62;nan;99714.53;5008379;27;97339;-88
2023/11/13 01:45:06;;;;;;;12.65;7.22;;;;;;;9.77;nan;99744.50;5024488;27;97220;-89
2023/11/13 01:47:32;;;;;;;12.90;7.43;;;;;;;9.70;nan;99725.56;5024549;27;101897;-88
2023/11/13 01:49:58;;;;;;;12.02;7.43;;;;;;;9.73;nan;99731.53;5005526;27;101439;-88
2023/11/13 01:52:26;;;;;;;13.20;7.20;;;;;;;9.73;nan;99739.41;5030829;27;97147;-89
2023/11/13 01:54:52;;;;;;;12.10;7.25;;;;;;;9.66;nan;99724.84;5012447;27;96987;-88
2023/11/13 01:57:18;;;;;;;12.00;7.32;;;;;;;9.55;nan;99705.22;5004381;27;100799;-88
2023/11/13 01:59:43;;;;;;;12.45;7.78;;;;;;;9.74;nan;99727.13;5001084;27;101312;-91
2023/11/13 02:02:09;;;;;;;11.80;7.32;;;;;;;9.54;nan;99709.63;5010985;28;96808;-93
2023/11/13 02:04:36;;;;;;;10.65;6.63;;;;;;;9.62;nan;99706.66;5000446;27;96676;-88
2023/11/13 02:07:01;;;;;;;10.77;7.25;;;;;;;9.63;nan;99714.47;5051178;27;97611;-88
2023/11/13 02:09:28;;;;;;;13.40;6.72;;;;;;;9.55;nan;99697.34;5009355;27;101391;-89
2023/11/13 02:11:54;;;;;;;11.00;5.32;;;;;;;9.36;nan;99657.91;5020388;27;97060;-89
2023/11/13 02:14:20;;;;;;;9.80;5.90;;;;;;;9.59;nan;99702.41;5006926;27;96822;-89
2023/11/13 02:16:46;;;;;;;8.75;5.22;;;;;;;9.58;nan;99702.47;5010202;28;101224;-89
2023/11/13 02:19:18;;;;;;;10.63;5.47;;;;;;;9.33;nan;99671.13;5007480;27;101031;-88
2023/11/13 02:21:44;;;;;;;8.13;5.20;;;;;;;9.45;nan;99691.59;4995731;27;96974;-89
2023/11/13 02:24:10;;;;;;;12.88;5.75;;;;;;;9.38;nan;99682.31;5025347;27;96885;-89
2023/11/13 02:26:35;;;;;;;7.63;5.15;;;;;;;9.37;nan;99689.31;5035942;27;98192;-88
2023/11/13 02:29:01;;;;;;;9.93;4.97;;;;;;;9.28;nan;99693.13;5010877;27;100035;-88
2023/11/13 02:31:27;;;;;;;7.82;5.20;;;;;;;9.38;nan;99708.50;5016749;27;96683;-88
2023/11/13 02:33:52;;;;;;;8.57;5.25;;;;;;;9.43;nan;99704.78;5001351;27;97080;-88
2023/11/13 02:36:19;;;;;;;8.60;4.65;;;;;;;9.22;nan;99675.03;5023939;27;101594;-89
2023/11/13 02:38:44;;;;;;;8.77;5.00;;;;;;;9.25;nan;99695.00;4999485;27;101826;-89
2023/11/13 02:41:10;;;;;;;9.38;5.30;;;;;;;9.30;nan;99696.53;5015952;27;96650;-89
2023/11/13 02:43:36;;;;;;;12.85;5.55;;;;;;;9.34;nan;99691.16;5024041;27;96931;-89
2023/11/13 02:46:02;;;;;;;9.35;5.20;;;;;;;9.28;nan;99710.63;5009512;27;101120;-88
2023/11/13 02:48:27;;;;;;;6.93;4.57;;;;;;;9.22;nan;99703.84;5005983;27;100821;-88
2023/11/13 02:50:53;;;;;;;9.30;5.20;;;;;;;9.28;nan;99702.78;5026164;27;96740;-88
2023/11/13 02:53:18;;;;;;;9.32;5.45;;;;;;;9.22;nan;99702.97;5008348;27;96793;-89
2023/11/13 02:55:44;;;;;;;12.18;6.22;;;;;;;9.05;nan;99685.31;5025514;27;101257;-91
2023/11/13 02:58:09;;;;;;;11.13;6.15;;;;;;;9.15;nan;99712.00;5023392;27;98011;-88
2023/11/13 03:00:35;;;;;;;10.55;6.35;;;;;;;8.99;nan;99682.94;5026541;27;97701;-88
2023/11/13 03:03:01;;;;;;;9.40;6.35;;;;;;;9.07;nan;99712.25;5007301;27;97153;-88
2023/11/13 03:05:27;;;;;;;10.30;6.80;;;;;;;9.13;nan;99706.78;5035090;27;101482;-88
2023/11/13 03:07:52;;;;;;;11.88;7.20;;;;;;;9.03;nan;99701.06;5007021;27;100258;-88
2023/11/13 03:10:18;;;;;;;12.43;7.18;;;;;;;9.05;nan;99695.78;5016535;27;96922;-90
2023/11/13 03:12:43;;;;;;;11.00;6.97;;;;;;;9.03;nan;99692.34;5004768;27;96966;-91
2023/11/13 03:15:09;;;;;;;10.40;7.03;;;;;;;9.03;nan;99705.44;4991185;27;101202;-91
2023/11/13 03:17:35;;;;;;;25.20;7.38;;;;;;;9.05;nan;99698.41;5020213;27;101322;-88
2023/11/13 03:20:03;;;;;;;12.27;7.13;;;;;;;8.95;nan;99695.25;4989320;28;96986;-88
2023/11/13 03:22:28;;;;;;;11.82;6.97;;;;;;;8.89;nan;99685.00;5018179;27;96788;-88
2023/11/13 03:24:54;;;;;;;11.40;6.90;;;;;;;8.69;nan;99656.97;5011351;27;101553;-88
2023/11/13 03:27:19;;;;;;;8.90;6.85;;;;;;;8.92;nan;99684.91;5013543;27;100966;-89
2023/11/13 03:29:45;;;;;;;9.23;7.05;;;;;;;8.91;nan;99690.22;5019908;27;96811;-89
2023/11/13 03:32:10;;;;;;;10.25;7.18;;;;;;;8.88;nan;99685.94;5024735;27;97000;-89
2023/11/13 03:34:37;;;;;;;11.88;7.82;;;;;;;8.81;nan;99682.69;5002605;27;101387;-88
2023/11/13 03:37:03;;;;;;;9.88;6.63;;;;;;;8.87;nan;99688.59;5030988;27;99566;-88
2023/11/13 03:39:28;;;;;;;11.85;6.70;;;;;;;8.78;nan;99693.25;5023970;28;96728;-88
2023/11/13 03:41:54;;;;;;;11.10;7.90;;;;;;;8.68;nan;99699.75;5019175;27;97407;-88
2023/11/13 03:44:20;;;;;;;10.35;7.13;;;;;;;8.69;nan;99701.44;5014266;28;101124;-91
2023/11/13 03:46:46;;;;;;;9.27;6.60;;;;;;;8.63;nan;99693.81;5000177;28;100921;-89
2023/11/13 03:49:11;;;;;;;11.77;6.82;;;;;;;8.58;nan;99699.22;5007590;27;97097;-88
2023/11/13 03:51:37;;;;;;;11.73;7.07;;;;;;;8.61;nan;99713.97;5031664;27;96996;-89
2023/11/13 03:54:02;;;;;;;12.75;7.75;;;;;;;8.60;nan;99715.72;5025176;27;98469;-88
2023/11/13 03:56:29;;;;;;;10.55;7.25;;;;;;;8.56;nan;99708.88;5004301;27;101473;-89
2023/11/13 03:58:55;;;;;;;15.35;8.23;;;;;;;8.49;nan;99703.91;5002848;27;97403;-89
2023/11/13 04:01:20;;;;;;;19.10;10.20;;;;;;;8.25;nan;99672.44;5004311;27;97138;-88
2023/11/13 04:03:46;;;;;;;16.98;9.93;;;;;;;8.57;nan;99714.97;5035345;27;101804;-91
2023/11/13 04:06:12;;;;;;;17.00;9.82;;;;;;;8.54;nan;99721.16;5031105;27;101090;-87
2023/11/13 04:08:37;;;;;;;15.20;9.15;;;;;;;8.35;nan;99697.38;5037190;27;96748;-87
2023/11/13 04:11:04;;;;;;;12.07;7.75;;;;;;;8.51;nan;99718.66;4996163;27;96861;-87
2023/11/13 04:13:30;;;;;;;11.38;7.32;;;;;;;8.44;nan;99703.25;5002297;28;101505;-90
2023/11/13 04:15:57;;;;;;;10.32;6.28;;;;;;;8.37;nan;99716.47;5031726;27;100609;-87
2023/11/13 04:18:24;;;;;;;10.68;6.35;;;;;;;8.52;nan;99725.63;5010703;27;96791;-87
2023/11/13 04:20:50;;;;;;;12.43;6.30;;;;;;;8.42;nan;99707.66;5030995;27;97636;-88
2023/11/13 04:23:15;;;;;;;12.50;6.05;;;;;;;8.45;nan;99718.88;5031114;27;98314;-87
2023/11/13 04:25:47;;;;;;;11.57;5.93;;;;;;;8.27;nan;99688.09;5044010;27;98431;-85
2023/11/13 04:28:16;;;;;;;12.18;5.65;;;;;;;8.39;nan;99721.69;5017695;27;96852;-87
2023/11/13 04:30:41;;;;;;;14.27;6.28;;;;;;;8.44;nan;99732.03;5004401;27;97138;-87
2023/11/13 04:33:07;;;;;;;8.95;5.50;;;;;;;8.40;nan;99733.84;5025074;27;101145;-87
2023/11/13 04:35:32;;;;;;;11.55;6.43;;;;;;;8.41;nan;99735.59;4999141;27;101190;-87
2023/11/13 04:37:58;;;;;;;11.98;5.95;;;;;;;8.39;nan;99732.16;5027188;27;96828;-88
2023/11/13 04:40:24;;;;;;;13.25;5.63;;;;;;;8.29;nan;99704.56;5006999;27;96717;-87
2023/11/13 04:42:50;;;;;;;10.52;5.78;;;;;;;8.39;nan;99727.78;5013768;27;103373;-88
2023/11/13 04:45:16;;;;;;;9.05;5.35;;;;;;;8.43;nan;99732.91;4999728;27;100445;-87
2023/11/13 04:47:42;;;;;;;13.43;7.15;;;;;;;8.25;nan;99701.22;4996269;27;96970;-87
2023/11/13 04:50:08;;;;;;;7.47;4.70;;;;;;;8.46;nan;99740.66;5010446;27;96758;-87
2023/11/13 04:52:33;;;;;;;5.30;4.13;;;;;;;8.54;nan;99744.69;5000822;28;100280;-87
2023/11/13 04:54:59;;;;;;;7.35;4.60;;;;;;;8.62;nan;99736.59;5024058;27;99944;-87
2023/11/13 04:57:24;;;;;;;5.95;4.13;;;;;;;8.61;nan;99740.13;5000425;27;96999;-87
2023/11/13 04:59:50;;;;;;;7.55;4.05;;;;;;;8.62;nan;99736.59;5021030;27;96964;-89
2023/11/13 05:02:16;;;;;;;5.38;3.78;;;;;;;8.43;nan;99701.53;5021477;27;100832;-88
2023/11/13 05:04:45;;;;;;;8.82;4.53;;;;;;;8.66;nan;99734.72;5017487;27;101000;-86
2023/11/13 05:07:11;;;;;;;8.07;4.35;;;;;;;8.63;nan;99735.69;5040368;27;96766;-87
2023/11/13 05:09:37;;;;;;;12.00;5.03;;;;;;;8.68;nan;99746.00;5000063;27;99483;-87
2023/11/13 05:12:03;;;;;;;8.93;4.90;;;;;;;8.67;nan;99741.66;5009065;28;100102;-87
2023/11/13 05:14:29;;;;;;;11.07;5.32;;;;;;;8.66;nan;99753.03;5011464;27;100986;-87
2023/11/13 05:16:56;;;;;;;6.22;3.60;;;;;;;8.67;nan;99747.75;4987259;28;96689;-88
2023/11/13 05:19:22;;;;;;;5.72;3.35;;;;;;;8.60;nan;99743.63;4999567;27;97492;-87
2023/11/13 05:21:47;;;;;;;5.43;3.22;;;;;;;8.44;nan;99730.25;5028500;27;98483;-87
2023/11/13 05:24:13;;;;;;;7.18;3.42;;;;;;;8.52;nan;99759.63;4995225;27;101896;-87
2023/11/13 05:26:38;;;;;;;6.95;3.60;;;;;;;8.68;nan;99752.06;5004131;27;96821;-87
2023/11/13 05:29:04;;;;;;;6.72;3.10;;;;;;;8.52;nan;99716.88;5002381;27;97111;-87
2023/11/13 05:31:29;;;;;;;5.35;3.05;;;;;;;8.70;nan;99747.66;5003259;27;98323;-86
2023/11/13 05:33:55;;;;;;;7.28;3.25;;;;;;;8.69;nan;99748.53;4990174;27;100790;-87
2023/11/13 05:36:21;;;;;;;6.38;3.28;;;;;;;8.73;nan;99755.41;4998916;27;96888;-88
2023/11/13 05:38:46;;;;;;;4.97;3.28;;;;;;;8.57;nan;99726.28;4992711;27;96805;-90
2023/11/13 05:41:12;;;;;;;9.93;3.47;;;;;;;8.76;nan;99754.44;5002066;27;101467;-88
2023/11/13 05:43:37;;;;;;;4.75;3.20;;;;;;;8.79;nan;99762.19;4999534;27;101425;-87
2023/11/13 05:46:03;;;;;;;7.70;3.45;;;;;;;8.83;nan;99766.38;4993256;27;96836;-87
2023/11/13 05:48:29;;;;;;;6.07;3.33;;;;;;;8.82;nan;99776.00;4987117;27;96735;-90
2023/11/13 05:50:54;;;;;;;5.40;3.10;;;;;;;8.81;nan;99776.03;4997166;28;98497;-85
2023/11/13 05:53:21;;;;;;;8.82;3.60;;;;;;;8.54;nan;99730.78;5003517;28;101028;-86
2023/11/13 05:55:47;;;;;;;5.38;3.13;;;;;;;8.76;nan;99777.97;5017318;28;97154;-87
2023/11/13 05:58:13;;;;;;;7.68;3.00;;;;;;;8.68;nan;99778.25;4983305;28;96765;-87
2023/11/13 06:00:38;;;;;;;7.90;3.53;;;;;;;8.64;nan;99775.78;5003426;27;98418;-86
2023/11/13 06:03:04;;;;;;;4.80;3.25;;;;;;;8.69;nan;99782.56;5018650;27;97658;-87
2023/11/13 06:05:30;;;;;;;10.75;3.75;;;;;;;8.64;nan;99749.59;5010866;27;96770;-87
2023/11/13 06:07:55;;;;;;;50.22;7.07;;;;;;;8.72;nan;99778.97;5002242;27;97039;-87
2023/11/13 06:10:21;;;;;;;28.25;5.63;;;;;;;8.57;nan;99738.50;5037074;27;98635;-86
2023/11/13 06:12:46;;;;;;;33.42;5.47;;;;;;;8.86;nan;99775.88;5011187;27;97892;-84
2023/11/13 06:15:16;;;;;;;36.47;6.13;;;;;;;8.65;nan;99756.56;5030051;27;96726;-83
2023/11/13 06:17:44;;;;;;;32.80;5.20;;;;;;;8.74;nan;99764.09;5008007;27;96829;-83
2023/11/13 06:20:14;;;;;;;70.07;10.02;;;;;;;8.86;nan;99770.66;5025132;27;98016;-79
2023/11/13 06:22:43;;;;;;;27.77;5.43;;;;;;;8.86;nan;99765.41;5036850;27;99410;-76
2023/11/13 06:25:10;;;;;;;28.45;5.38;;;;;;;8.71;nan;99751.97;5001843;27;96705;-76
2023/11/13 06:27:36;;;;;;;23.50;5.53;;;;;;;8.76;nan;99765.75;5022719;27;97259;-76
2023/11/13 06:30:02;;;;;;;32.50;6.20;;;;;;;8.74;nan;99757.09;5024088;27;101269;-74
2023/11/13 06:32:29;;;;;;;21.77;4.35;;;;;;;8.64;nan;99760.97;5035858;27;97484;-73
2023/11/13 06:34:55;;;;;;;12.30;4.28;;;;;;;8.78;nan;99782.22;5032625;27;96725;-73
2023/11/13 06:37:20;;;;;;;4.72;3.30;;;;;;;8.71;nan;99772.06;5028839;27;97878;-75
2023/11/13 06:39:46;;;;;;;6.13;3.53;;;;;;;8.91;nan;99787.06;5063210;27;97867;-81
2023/11/13 06:42:12;;;;;;;6.38;3.63;;;;;;;8.84;nan;99771.56;5021321;27;100770;-76
2023/11/13 06:44:38;;;;;;;10.00;3.70;;;;;;;8.92;nan;99776.50;5013827;28;96824;-76
2023/11/13 06:47:05;;;;;;;5.30;3.38;;;;;;;9.02;nan;99792.75;5028037;27;96857;-74
2023/11/13 06:49:31;;;;;;;9.13;4.22;;;;;;;8.98;nan;99789.38;5005716;27;101062;-76
2023/11/13 06:51:56;;;;;;;5.32;3.45;;;;;;;9.02;nan;99791.00;5041657;27;97403;-79
2023/11/13 06:54:22;;;;;;;9.95;4.20;;;;;;;9.06;nan;99800.44;5014459;28;97331;-76
2023/11/13 06:56:47;;;;;;;8.98;4.32;;;;;;;8.95;nan;99779.03;5016436;27;98022;-75
2023/11/13 06:59:13;;;;;;;11.27;4.32;;;;;;;9.04;nan;99781.31;5035305;27;98114;-75
2023/11/13 07:01:42;;;;;;;9.40;3.92;;;;;;;9.10;nan;99789.84;5037356;27;97351;-76
2023/11/13 07:04:12;;;;;;;7.95;3.95;;;;;;;9.17;nan;99807.06;5009002;27;97707;-75
2023/11/13 07:06:39;;;;;;;12.50;3.85;;;;;;;9.24;nan;99806.75;5040377;27;97416;-74
2023/11/13 07:09:10;;;;;;;4.60;3.05;;;;;;;9.21;nan;99804.25;5027097;27;101320;-75
2023/11/13 07:11:43;;;;;;;7.85;3.55;;;;;;;9.23;nan;99812.94;5020197;27;101219;-75
2023/11/13 07:14:12;;;;;;;7.53;3.78;;;;;;;9.20;nan;99818.28;5032269;27;96873;-77
2023/11/13 07:16:38;;;;;;;8.75;3.63;;;;;;;9.26;nan;99812.81;5023059;28;97336;-77
2023/11/13 07:19:04;;;;;;;6.63;3.63;;;;;;;9.19;nan;99806.09;5035256;27;97403;-76
2023/11/13 07:21:30;;;;;;;22.85;4.35;;;;;;;9.19;nan;99813.97;5032463;27;97511;-75
2023/11/13 07:23:58;;;;;;;16.80;4.10;;;;;;;9.19;nan;99807.84;5018066;27;97371;-75
2023/11/13 07:26:24;;;;;;;12.55;4.10;;;;;;;9.21;nan;99816.50;5033245;27;97103;-74
2023/11/13 07:28:50;;;;;;;8.10;3.70;;;;;;;9.14;nan;99787.06;5057405;27;98430;-75
2023/11/13 07:31:16;;;;;;;6.35;3.05;;;;;;;9.33;nan;99808.19;5029368;27;97435;-75
2023/11/13 07:33:42;;;;;;;7.90;3.88;;;;;;;9.38;nan;99813.28;5036069;27;97423;-77
2023/11/13 07:36:10;;;;;;;9.98;3.65;;;;;;;9.17;nan;99792.19;5017912;27;96919;-77
2023/11/13 07:38:36;;;;;;;5.75;3.35;;;;;;;9.36;nan;99796.75;5031378;27;97489;-75
2023/11/13 07:41:02;;;;;;;7.45;3.50;;;;;;;9.45;nan;99792.03;5019041;27;101072;-81
2023/11/13 07:43:28;;;;;;;8.48;3.90;;;;;;;9.56;nan;99811.72;5025738;27;96838;-75
2023/11/13 07:45:54;;;;;;;14.90;3.97;;;;;;;9.61;nan;99801.94;5030377;27;96848;-75
2023/11/13 07:48:20;;;;;;;19.63;5.28;;;;;;;9.59;nan;99803.75;5025973;27;100931;-79
2023/11/13 07:50:46;;;;;;;10.68;4.88;;;;;;;9.47;nan;99813.78;5021498;27;97373;-82
2023/11/13 07:53:12;;;;;;;11.15;4.47;;;;;;;9.42;nan;99786.88;5015115;27;96806;-76
2023/11/13 07:55:43;;;;;;;9.85;4.15;;;;;;;9.56;nan;99799.47;5035889;27;96766;-78
2023/11/13 07:58:13;;;;;;;9.63;4.30;;;;;;;9.52;nan;99798.75;5018259;27;99195;-75
2023/11/13 08:00:40;;;;;;;9.00;4.47;;;;;;;9.50;nan;99802.31;5037760;27;97393;-75
2023/11/13 08:03:05;;;;;;;6.18;3.65;;;;;;;9.47;nan;99777.09;5039378;27;97112;-76
2023/11/13 08:05:31;;;;;;;10.98;3.97;;;;;;;9.54;nan;99801.31;5057083;27;97051;-78
2023/11/13 08:07:59;;;;;;;8.82;3.40;;;;;;;9.60;nan;99802.81;5026234;27;98067;-74
2023/11/13 08:10:24;;;;;;;5.72;3.30;;;;;;;9.62;nan;99796.63;5034260;27;97383;-75
2023/11/13 08:12:50;;;;;;;5.32;2.97;;;;;;;9.62;nan;99787.91;5026028;27;98369;-75
2023/11/13 08:15:16;;;;;;;7.70;3.08;;;;;;;9.68;nan;99780.66;5032343;27;96738;-78
2023/11/13 08:17:46;;;;;;;9.45;3.42;;;;;;;9.71;nan;99793.63;5033835;27;97868;-74
2023/11/13 08:20:16;;;;;;;7.25;4.30;;;;;;;9.77;nan;99789.91;5035901;27;97292;-74
2023/11/13 08:22:42;;;;;;;11.45;3.55;;;;;;;9.57;nan;99755.78;5026182;27;96750;-77
2023/11/13 08:25:12;;;;;;;10.88;3.83;;;;;;;9.88;nan;99779.03;4996680;27;96946;-76
2023/11/13 08:27:41;;;;;;;6.88;3.20;;;;;;;9.97;nan;99778.66;5046267;27;98462;-79
2023/11/13 08:30:09;;;;;;;14.75;4.53;;;;;;;10.12;nan;99774.56;5031293;27;97384;-75
2023/11/13 08:32:35;;;;;;;12.30;4.03;;;;;;;10.17;nan;99783.09;5031963;27;98545;-76
2023/11/13 08:35:11;;;;;;;9.68;4.30;;;;;;;10.24;nan;99778.44;5029371;27;96947;-78
2023/11/13 08:37:45;;;;;;;9.70;3.33;;;;;;;10.29;nan;99782.63;5030664;27;97359;-75
2023/11/13 08:40:12;;;;;;;10.75;4.68;;;;;;;10.29;nan;99794.88;5045756;27;97356;-77
2023/11/13 08:42:41;;;;;;;10.93;4.65;;;;;;;10.20;nan;99788.22;5029716;27;97331;-76
2023/11/13 08:45:12;;;;;;;7.85;3.92;;;;;;;10.26;nan;99769.59;5016529;27;97251;-76
2023/11/13 08:47:45;;;;;;;15.90;4.78;;;;;;;10.34;nan;99782.44;5037316;27;97512;-76
2023/11/13 08:50:11;;;;;;;9.30;4.30;;;;;;;10.29;nan;99780.00;5062694;27;97334;-75
2023/11/13 08:52:41;;;;;;;12.68;3.95;;;;;;;10.45;nan;99798.59;5014829;27;96807;-76
2023/11/13 08:55:10;;;;;;;6.97;3.75;;;;;;;10.32;nan;99771.16;5016612;27;96829;-75
2023/11/13 08:57:42;;;;;;;7.82;3.55;;;;;;;10.33;nan;99770.25;5035619;27;97539;-78
2023/11/13 09:00:18;;;;;;;11.48;4.15;;;;;;;10.30;nan;99768.59;5051239;27;97382;-77
2023/11/13 09:03:02;;;;;;;6.05;3.00;;;;;;;10.51;nan;99781.75;5023129;27;97316;-75
2023/11/13 09:05:28;;;;;;;6.82;3.05;;;;;;;10.70;nan;99795.75;5044880;27;96688;-79
2023/11/13 09:07:55;;;;;;;6.30;3.10;;;;;;;10.70;nan;99793.13;5043500;27;97344;-75
2023/11/13 09:10:26;;;;;;;8.35;2.75;;;;;;;10.68;nan;99781.88;5010334;27;99524;-75
2023/11/13 09:12:59;;;;;;;8.02;4.05;;;;;;;10.94;nan;99793.00;4999888;27;96987;-78
2023/11/13 09:15:27;;;;;;;6.70;3.60;;;;;;;10.99;nan;99793.66;5043324;27;96719;-76
2023/11/13 09:17:58;;;;;;;8.43;3.47;;;;;;;10.98;nan;99776.19;5028597;27;97386;-75
2023/11/13 09:20:24;;;;;;;10.17;4.00;;;;;;;11.26;nan;99792.44;5027611;27;97264;-82
2023/11/13 09:22:54;;;;;;;10.40;4.70;;;;;;;11.45;nan;99792.44;5014920;28;96818;-82
2023/11/13 09:25:21;;;;;;;9.82;4.90;;;;;;;11.60;nan;99777.72;5024200;27;96846;-79
2023/11/13 09:27:49;;;;;;;10.48;4.30;;;;;;;11.79;nan;99783.00;5033789;27;97604;-78
2023/11/13 09:30:18;;;;;;;11.98;3.95;;;;;;;11.69;nan;99765.94;5014368;28;101421;-77
2023/11/13 09:32:45;;;;;;;9.98;3.55;;;;;;;11.86;nan;99786.19;5035539;27;96918;-85
2023/11/13 09:35:18;;;;;;;6.05;2.90;;;;;;;11.60;nan;99769.84;5021735;27;97547;-86
2023/11/13 09:37:51;;;;;;;9.82;3.03;;;;;;;11.82;nan;99793.34;5020915;27;101023;-85
2023/11/13 09:40:18;;;;;;;6.93;2.88;;;;;;;11.94;nan;99784.91;5041637;27;97924;-86
2023/11/13 09:42:50;;;;;;;8.48;3.08;;;;;;;11.85;nan;99768.69;5069360;27;96647;-84
2023/11/13 09:45:16;;;;;;;5.50;3.03;;;;;;;12.04;nan;99790.56;5028705;27;97131;-88
2023/11/13 09:47:45;;;;;;;5.80;3.05;;;;;;;12.15;nan;99788.28;4998565;27;101581;-81
2023/11/13 09:50:15;;;;;;;7.60;3.60;;;;;;;12.09;nan;99801.72;5019205;27;98037;-81
2023/11/13 09:52:51;;;;;;;7.22;3.30;;;;;;;12.07;nan;99789.56;5034251;27;96759;-81
2023/11/13 09:55:20;;;;;;;10.23;3.67;;;;;;;11.97;nan;99776.88;5022900;27;97564;-82
2023/11/13 09:57:48;;;;;;;8.13;3.30;;;;;;;12.05;nan;99792.28;5012009;28;97571;-81
2023/11/13 10:00:16;;;;;;;6.03;2.72;;;;;;;12.03;nan;99774.88;5013510;27;97727;-80
2023/11/13 10:02:46;;;;;;;8.38;3.00;;;;;;;12.09;nan;99787.72;5029404;27;96793;-82
2023/11/13 10:05:15;;;;;;;7.30;3.50;;;;;;;12.13;nan;99777.00;5009345;27;96825;-82
2023/11/13 10:07:52;;;;;;;10.95;2.88;;;;;;;12.12;nan;99767.38;5034119;27;98360;-82
2023/11/13 10:10:23;;;;;;;7.80;2.97;;;;;;;12.21;nan;99772.19;5021149;28;97287;-83
2023/11/13 10:12:53;;;;;;;6.47;2.63;;;;;;;12.31;nan;99772.59;5033772;27;97109;-81
2023/11/13 10:15:32;;;;;;;8.57;2.60;;;;;;;12.34;nan;99753.16;5015528;28;97410;-81
2023/11/13 10:17:59;;;;;;;7.60;2.28;;;;;;;12.54;nan;99754.81;5024084;27;99944;-82
2023/11/13 10:20:26;;;;;;;4.57;2.35;;;;;;;12.75;nan;99766.00;5036335;27;97450;-83
2023/11/13 10:23:00;;;;;;;5.78;1.50;;;;;;;12.67;nan;99764.59;5022300;27;98233;-82
2023/11/13 10:25:50;;;;;;;4.28;1.58;;;;;;;12.94;nan;99750.06;5018889;27;97025;-76
2023/11/13 10:28:19;;;;;;;3.40;1.70;;;;;;;13.38;nan;99747.75;5024261;27;98546;-84
2023/11/13 10:30:51;;;;;;;2.83;1.23;;;;;;;13.54;nan;99743.31;5020727;27;97225;-81
2023/11/13 10:33:16;;;;;;;4.65;1.40;;;;;;;13.61;nan;99733.25;5018468;27;96745;-80
2023/11/13 10:35:45;;;;;;;1.88;1.13;;;;;;;13.53;nan;99728.44;5045745;27;96785;-78
2023/11/13 10:38:14;;;;;;;3.47;1.40;;;;;;;13.53;nan;99724.94;5025725;27;98065;-79
2023/11/13 10:41:12;;;;;;;2.05;0.90;;;;;;;13.44;nan;99721.03;5019817;27;97910;-80
2023/11/13 10:43:41;;;;;;;3.03;1.20;;;;;;;13.69;nan;99724.94;4974373;27;96825;-76
2023/11/13 10:46:07;;;;;;;6.85;1.30;;;;;;;13.65;nan;99726.06;5018972;27;96859;-73
2023/11/13 10:48:43;;;;;;;2.72;1.15;;;;;;;13.73;nan;99726.44;5026605;27;97337;-73
2023/11/13 10:51:11;;;;;;;2.65;1.50;;;;;;;13.90;nan;99728.13;5016749;27;97350;-73
2023/11/13 10:53:42;;;;;;;3.40;1.20;;;;;;;13.77;nan;99714.81;5034129;27;96873;-75
2023/11/13 10:56:11;;;;;;;5.80;1.70;;;;;;;13.64;nan;99712.00;5020626;27;97437;-73
2023/11/13 10:58:38;;;;;;;5.38;2.20;;;;;;;13.59;nan;99706.16;5008396;27;98749;-73
2023/11/13 11:01:13;;;;;;;4.00;1.60;;;;;;;13.69;nan;99735.47;5023640;27;97866;-74
2023/11/13 11:03:47;;;;;;;4.78;1.80;;;;;;;13.30;nan;99707.78;5034240;27;97603;-74
2023/11/13 11:06:22;;;;;;;4.80;2.00;;;;;;;13.25;nan;99722.94;5041381;27;97352;-73
2023/11/13 11:08:50;;;;;;;5.43;2.65;;;;;;;12.98;nan;99722.66;5032654;27;97406;-73
2023/11/13 11:11:19;;;;;;;6.88;2.17;;;;;;;12.81;nan;99715.63;5025571;27;97885;-78
2023/11/13 11:13:50;;;;;;;7.90;2.40;;;;;;;12.70;nan;99726.72;5001534;28;96921;-85
2023/11/13 11:16:18;;;;;;;3.28;1.95;;;;;;;12.69;nan;99727.66;5018307;27;97300;-84
2023/11/13 11:19:13;;;;;;;4.43;2.20;;;;;;;12.72;nan;99711.72;5038597;27;97526;-84
2023/11/13 11:21:46;;;;;;;4.75;1.92;;;;;;;12.66;nan;99702.34;5006057;27;98247;-82
2023/11/13 11:24:24;;;;;;;7.05;2.03;;;;;;;12.78;nan;99716.66;5005887;27;96854;-83
2023/11/13 11:26:52;;;;;;;6.00;1.40;;;;;;;12.86;nan;99705.72;5010344;27;96749;-83
2023/11/13 11:29:35;;;;;;;4.85;2.15;;;;;;;12.71;nan;99709.13;5017201;27;98155;-84
2023/11/13 11:32:13;;;;;;;5.72;2.13;;;;;;;12.48;nan;99702.44;5004060;28;97931;-84
2023/11/13 11:34:43;;;;;;;6.25;2.10;;;;;;;12.39;nan;99704.63;5032163;27;96850;-83
2023/11/13 11:37:12;;;;;;;5.38;2.08;;;;;;;12.42;nan;99707.09;5007406;27;97496;-82
2023/11/13 11:39:50;;;;;;;6.63;2.13;;;;;;;12.36;nan;99703.91;5013782;27;97602;-83
2023/11/13 11:42:20;;;;;;;3.97;2.00;;;;;;;12.13;nan;99690.16;5000705;27;97453;-84
2023/11/13 11:45:06;;;;;;;11.38;2.63;;;;;;;12.29;nan;99713.06;5011813;27;97027;-84
2023/11/13 11:47:36;;;;;;;8.05;2.17;;;;;;;12.37;nan;99709.13;5047506;27;96791;-84
2023/11/13 11:50:12;;;;;;;5.43;1.92;;;;;;;12.07;nan;99700.13;5013721;28;101775;-84
2023/11/13 11:52:43;;;;;;;3.05;1.80;;;;;;;12.08;nan;99700.06;4989206;27;101787;-84